sensor_id;sensor_type;location;lat;lon;timestamp;P1;durP1;ratioP1;P2;durP2;ratioP2
12445;SDS011;6287;50.984;7.022;2023-06-14T00:00:34;4.72;;;3.40;;
12445;SDS011;6287;50.984;7.022;2023-06-14T00:03:06;4.60;;;3.58;;
12445;SDS011;6287;50.984;7.022;2023-06-14T00:05:34;5.35;;;3.65;;
12445;SDS011;6287;50.984;7.022;2023-06-14T00:08:06;5.05;;;4.10;;
12445;SDS011;6287;50.984;7.022;2023-06-14T00:10:35;4.22;;;3.83;;
12445;SDS011;6287;50.984;7.022;2023-06-14T00:13:05;4.60;;;3.70;;
12445;SDS011;6287;50.984;7.022;2023-06-14T00:15:32;4.47;;;3.78;;
12445;SDS011;6287;50.984;7.022;2023-06-14T00:18:00;4.30;;;3.45;;
12445;SDS011;6287;50.984;7.022;2023-06-14T00:20:27;3.95;;;3.55;;
12445;SDS011;6287;50.984;7.022;2023-06-14T00:22:57;4.30;;;3.90;;
12445;SDS011;6287;50.984;7.022;2023-06-14T00:25:23;3.75;;;3.45;;
12445;SDS011;6287;50.984;7.022;2023-06-14T00:27:55;3.85;;;3.53;;
12445;SDS011;6287;50.984;7.022;2023-06-14T00:30:21;5.13;;;4.13;;
12445;SDS011;6287;50.984;7.022;2023-06-14T00:32:48;4.18;;;3.78;;
12445;SDS011;6287;50.984;7.022;2023-06-14T00:35:17;4.32;;;3.90;;
12445;SDS011;6287;50.984;7.022;2023-06-14T00:37:45;3.95;;;3.55;;
12445;SDS011;6287;50.984;7.022;2023-06-14T00:40:19;6.32;;;3.63;;
12445;SDS011;6287;50.984;7.022;2023-06-14T00:42:45;4.50;;;4.10;;
12445;SDS011;6287;50.984;7.022;2023-06-14T00:45:11;4.13;;;3.72;;
12445;SDS011;6287;50.984;7.022;2023-06-14T00:47:36;4.28;;;3.67;;
12445;SDS011;6287;50.984;7.022;2023-06-14T00:50:05;4.45;;;3.90;;
12445;SDS011;6287;50.984;7.022;2023-06-14T00:52:32;3.88;;;3.30;;
12445;SDS011;6287;50.984;7.022;2023-06-14T00:55:05;4.63;;;4.00;;
12445;SDS011;6287;50.984;7.022;2023-06-14T00:57:31;4.97;;;4.10;;
12445;SDS011;6287;50.984;7.022;2023-06-14T00:59:57;4.97;;;3.78;;
12445;SDS011;6287;50.984;7.022;2023-06-14T01:02:23;3.95;;;3.58;;
12445;SDS011;6287;50.984;7.022;2023-06-14T01:04:49;4.78;;;3.83;;
12445;SDS011;6287;50.984;7.022;2023-06-14T01:07:39;7.72;;;4.15;;
12445;SDS011;6287;50.984;7.022;2023-06-14T01:15:52;4.82;;;3.83;;
12445;SDS011;6287;50.984;7.022;2023-06-14T01:18:23;4.10;;;3.67;;
12445;SDS011;6287;50.984;7.022;2023-06-14T01:20:50;5.10;;;3.90;;
12445;SDS011;6287;50.984;7.022;2023-06-14T01:23:20;4.00;;;3.60;;
12445;SDS011;6287;50.984;7.022;2023-06-14T01:25:47;4.90;;;4.30;;
12445;SDS011;6287;50.984;7.022;2023-06-14T01:28:17;4.30;;;3.77;;
12445;SDS011;6287;50.984;7.022;2023-06-14T01:30:48;5.10;;;4.45;;
12445;SDS011;6287;50.984;7.022;2023-06-14T01:33:21;4.70;;;4.20;;
12445;SDS011;6287;50.984;7.022;2023-06-14T01:35:52;4.57;;;4.18;;
12445;SDS011;6287;50.984;7.022;2023-06-14T01:38:24;6.70;;;4.15;;
12445;SDS011;6287;50.984;7.022;2023-06-14T01:40:51;4.13;;;3.63;;
12445;SDS011;6287;50.984;7.022;2023-06-14T01:43:22;6.07;;;4.27;;
12445;SDS011;6287;50.984;7.022;2023-06-14T01:45:52;5.10;;;4.20;;
12445;SDS011;6287;50.984;7.022;2023-06-14T01:48:21;5.17;;;3.60;;
12445;SDS011;6287;50.984;7.022;2023-06-14T01:50:50;5.30;;;4.10;;
12445;SDS011;6287;50.984;7.022;2023-06-14T01:53:18;4.30;;;3.90;;
12445;SDS011;6287;50.984;7.022;2023-06-14T01:55:43;4.22;;;3.83;;
12445;SDS011;6287;50.984;7.022;2023-06-14T01:58:13;4.33;;;3.93;;
12445;SDS011;6287;50.984;7.022;2023-06-14T02:00:41;4.80;;;3.80;;
12445;SDS011;6287;50.984;7.022;2023-06-14T02:03:10;4.20;;;3.90;;
12445;SDS011;6287;50.984;7.022;2023-06-14T02:05:38;4.90;;;4.37;;
12445;SDS011;6287;50.984;7.022;2023-06-14T02:08:04;4.10;;;3.70;;
12445;SDS011;6287;50.984;7.022;2023-06-14T02:10:30;4.93;;;4.37;;
12445;SDS011;6287;50.984;7.022;2023-06-14T02:12:57;4.50;;;4.10;;
12445;SDS011;6287;50.984;7.022;2023-06-14T02:15:22;3.80;;;3.47;;
12445;SDS011;6287;50.984;7.022;2023-06-14T02:17:48;4.37;;;3.90;;
12445;SDS011;6287;50.984;7.022;2023-06-14T02:20:14;5.00;;;4.40;;
12445;SDS011;6287;50.984;7.022;2023-06-14T02:22:44;4.40;;;4.00;;
12445;SDS011;6287;50.984;7.022;2023-06-14T02:25:10;4.30;;;3.83;;
12445;SDS011;6287;50.984;7.022;2023-06-14T02:27:36;5.60;;;4.30;;
12445;SDS011;6287;50.984;7.022;2023-06-14T02:30:06;6.60;;;3.90;;
12445;SDS011;6287;50.984;7.022;2023-06-14T02:32:32;4.47;;;4.03;;
12445;SDS011;6287;50.984;7.022;2023-06-14T02:35:01;4.33;;;3.93;;
12445;SDS011;6287;50.984;7.022;2023-06-14T02:37:27;5.73;;;4.00;;
12445;SDS011;6287;50.984;7.022;2023-06-14T02:39:53;4.50;;;3.77;;
12445;SDS011;6287;50.984;7.022;2023-06-14T02:42:23;4.50;;;4.10;;
12445;SDS011;6287;50.984;7.022;2023-06-14T02:44:48;4.23;;;3.80;;
12445;SDS011;6287;50.984;7.022;2023-06-14T02:47:17;5.00;;;4.10;;
12445;SDS011;6287;50.984;7.022;2023-06-14T02:49:43;4.33;;;3.93;;
12445;SDS011;6287;50.984;7.022;2023-06-14T02:52:11;5.10;;;4.10;;
12445;SDS011;6287;50.984;7.022;2023-06-14T02:54:40;4.77;;;4.10;;
12445;SDS011;6287;50.984;7.022;2023-06-14T02:57:06;4.40;;;4.00;;
12445;SDS011;6287;50.984;7.022;2023-06-14T02:59:35;6.27;;;4.27;;
12445;SDS011;6287;50.984;7.022;2023-06-14T03:02:01;4.47;;;4.07;;
12445;SDS011;6287;50.984;7.022;2023-06-14T03:04:26;4.53;;;4.13;;
12445;SDS011;6287;50.984;7.022;2023-06-14T03:06:53;5.23;;;4.37;;
12445;SDS011;6287;50.984;7.022;2023-06-14T03:09:19;5.97;;;4.07;;
12445;SDS011;6287;50.984;7.022;2023-06-14T03:11:52;4.40;;;3.97;;
12445;SDS011;6287;50.984;7.022;2023-06-14T03:14:18;4.87;;;4.43;;
12445;SDS011;6287;50.984;7.022;2023-06-14T03:16:46;5.07;;;4.30;;
12445;SDS011;6287;50.984;7.022;2023-06-14T03:19:21;5.33;;;4.63;;
12445;SDS011;6287;50.984;7.022;2023-06-14T03:21:47;4.53;;;3.87;;
12445;SDS011;6287;50.984;7.022;2023-06-14T03:24:16;4.20;;;3.80;;
12445;SDS011;6287;50.984;7.022;2023-06-14T03:26:42;4.40;;;4.00;;
12445;SDS011;6287;50.984;7.022;2023-06-14T03:29:10;5.53;;;4.60;;
12445;SDS011;6287;50.984;7.022;2023-06-14T03:31:57;5.87;;;4.27;;
12445;SDS011;6287;50.984;7.022;2023-06-14T03:34:24;4.20;;;3.73;;
12445;SDS011;6287;50.984;7.022;2023-06-14T03:36:49;4.43;;;3.93;;
12445;SDS011;6287;50.984;7.022;2023-06-14T03:39:15;4.70;;;4.30;;
12445;SDS011;6287;50.984;7.022;2023-06-14T03:41:43;6.00;;;4.60;;
12445;SDS011;6287;50.984;7.022;2023-06-14T03:44:08;5.13;;;4.63;;
12445;SDS011;6287;50.984;7.022;2023-06-14T03:46:35;7.27;;;4.40;;
12445;SDS011;6287;50.984;7.022;2023-06-14T03:49:04;6.53;;;4.37;;
12445;SDS011;6287;50.984;7.022;2023-06-14T03:51:32;5.63;;;4.43;;
12445;SDS011;6287;50.984;7.022;2023-06-14T03:54:00;4.27;;;3.97;;
12445;SDS011;6287;50.984;7.022;2023-06-14T03:56:28;4.90;;;4.40;;
12445;SDS011;6287;50.984;7.022;2023-06-14T03:58:56;4.87;;;4.10;;
12445;SDS011;6287;50.984;7.022;2023-06-14T04:01:26;4.90;;;4.23;;
12445;SDS011;6287;50.984;7.022;2023-06-14T04:03:54;5.90;;;4.20;;
12445;SDS011;6287;50.984;7.022;2023-06-14T04:06:21;4.67;;;4.17;;
12445;SDS011;6287;50.984;7.022;2023-06-14T04:08:47;6.20;;;4.77;;
12445;SDS011;6287;50.984;7.022;2023-06-14T04:11:18;6.60;;;4.57;;
12445;SDS011;6287;50.984;7.022;2023-06-14T04:13:44;6.47;;;4.10;;
12445;SDS011;6287;50.984;7.022;2023-06-14T04:16:13;5.47;;;4.80;;
12445;SDS011;6287;50.984;7.022;2023-06-14T04:18:39;6.37;;;4.17;;
12445;SDS011;6287;50.984;7.022;2023-06-14T04:21:05;7.27;;;4.53;;
12445;SDS011;6287;50.984;7.022;2023-06-14T04:23:31;4.70;;;4.10;;
12445;SDS011;6287;50.984;7.022;2023-06-14T04:25:58;4.90;;;4.30;;
12445;SDS011;6287;50.984;7.022;2023-06-14T04:28:27;5.27;;;4.37;;
12445;SDS011;6287;50.984;7.022;2023-06-14T04:30:53;4.77;;;4.23;;
12445;SDS011;6287;50.984;7.022;2023-06-14T04:33:21;6.00;;;4.10;;
12445;SDS011;6287;50.984;7.022;2023-06-14T04:35:52;6.33;;;4.33;;
12445;SDS011;6287;50.984;7.022;2023-06-14T04:38:18;4.70;;;4.30;;
12445;SDS011;6287;50.984;7.022;2023-06-14T04:40:52;5.07;;;4.47;;
12445;SDS011;6287;50.984;7.022;2023-06-14T04:43:21;5.73;;;4.10;;
12445;SDS011;6287;50.984;7.022;2023-06-14T04:45:50;4.77;;;4.27;;
12445;SDS011;6287;50.984;7.022;2023-06-14T04:48:17;5.90;;;4.40;;
12445;SDS011;6287;50.984;7.022;2023-06-14T04:50:45;6.37;;;4.67;;
12445;SDS011;6287;50.984;7.022;2023-06-14T04:53:11;7.63;;;4.60;;
12445;SDS011;6287;50.984;7.022;2023-06-14T04:55:37;5.07;;;4.07;;
12445;SDS011;6287;50.984;7.022;2023-06-14T04:58:12;6.57;;;4.25;;
12445;SDS011;6287;50.984;7.022;2023-06-14T05:00:38;4.73;;;4.20;;
12445;SDS011;6287;50.984;7.022;2023-06-14T05:03:06;6.07;;;4.17;;
12445;SDS011;6287;50.984;7.022;2023-06-14T05:05:40;4.17;;;3.80;;
12445;SDS011;6287;50.984;7.022;2023-06-14T05:08:06;5.10;;;4.00;;
12445;SDS011;6287;50.984;7.022;2023-06-14T05:10:32;4.80;;;3.97;;
12445;SDS011;6287;50.984;7.022;2023-06-14T05:13:00;4.77;;;3.83;;
12445;SDS011;6287;50.984;7.022;2023-06-14T05:15:26;5.13;;;3.75;;
12445;SDS011;6287;50.984;7.022;2023-06-14T05:17:54;4.90;;;3.50;;
12445;SDS011;6287;50.984;7.022;2023-06-14T05:20:24;3.90;;;3.55;;
12445;SDS011;6287;50.984;7.022;2023-06-14T05:22:55;3.95;;;3.40;;
12445;SDS011;6287;50.984;7.022;2023-06-14T05:25:21;4.43;;;3.45;;
12445;SDS011;6287;50.984;7.022;2023-06-14T05:27:49;3.95;;;3.58;;
12445;SDS011;6287;50.984;7.022;2023-06-14T05:30:15;3.40;;;3.10;;
12445;SDS011;6287;50.984;7.022;2023-06-14T05:32:46;4.45;;;3.38;;
12445;SDS011;6287;50.984;7.022;2023-06-14T05:35:14;3.75;;;3.40;;
12445;SDS011;6287;50.984;7.022;2023-06-14T05:37:39;3.42;;;2.90;;
12445;SDS011;6287;50.984;7.022;2023-06-14T05:40:05;3.42;;;3.13;;
12445;SDS011;6287;50.984;7.022;2023-06-14T05:42:32;4.18;;;3.05;;
12445;SDS011;6287;50.984;7.022;2023-06-14T05:44:58;7.30;;;3.10;;
12445;SDS011;6287;50.984;7.022;2023-06-14T05:47:24;3.50;;;3.13;;
12445;SDS011;6287;50.984;7.022;2023-06-14T05:49:52;3.60;;;2.95;;
12445;SDS011;6287;50.984;7.022;2023-06-14T05:52:20;3.20;;;2.72;;
12445;SDS011;6287;50.984;7.022;2023-06-14T05:54:49;3.30;;;2.85;;
12445;SDS011;6287;50.984;7.022;2023-06-14T05:57:19;4.82;;;2.40;;
12445;SDS011;6287;50.984;7.022;2023-06-14T05:59:45;3.25;;;2.75;;
12445;SDS011;6287;50.984;7.022;2023-06-14T06:02:10;2.97;;;2.70;;
12445;SDS011;6287;50.984;7.022;2023-06-14T06:04:36;2.88;;;2.30;;
12445;SDS011;6287;50.984;7.022;2023-06-14T06:07:01;2.88;;;2.53;;
12445;SDS011;6287;50.984;7.022;2023-06-14T06:09:27;4.53;;;2.60;;
12445;SDS011;6287;50.984;7.022;2023-06-14T06:11:55;2.92;;;2.50;;
12445;SDS011;6287;50.984;7.022;2023-06-14T06:14:23;3.40;;;2.70;;
12445;SDS011;6287;50.984;7.022;2023-06-14T06:16:49;2.40;;;2.20;;
12445;SDS011;6287;50.984;7.022;2023-06-14T06:19:15;4.28;;;2.38;;
12445;SDS011;6287;50.984;7.022;2023-06-14T06:21:45;2.80;;;2.60;;
12445;SDS011;6287;50.984;7.022;2023-06-14T06:24:13;2.40;;;2.08;;
12445;SDS011;6287;50.984;7.022;2023-06-14T06:26:38;2.55;;;2.35;;
12445;SDS011;6287;50.984;7.022;2023-06-14T06:29:07;2.08;;;1.85;;
12445;SDS011;6287;50.984;7.022;2023-06-14T06:31:32;2.63;;;2.13;;
12445;SDS011;6287;50.984;7.022;2023-06-14T06:34:02;2.85;;;2.40;;
12445;SDS011;6287;50.984;7.022;2023-06-14T06:36:28;3.70;;;2.20;;
12445;SDS011;6287;50.984;7.022;2023-06-14T06:38:53;2.45;;;2.25;;
12445;SDS011;6287;50.984;7.022;2023-06-14T06:41:19;2.15;;;2.05;;
12445;SDS011;6287;50.984;7.022;2023-06-14T06:43:49;3.58;;;2.08;;
12445;SDS011;6287;50.984;7.022;2023-06-14T06:46:15;2.17;;;2.00;;
12445;SDS011;6287;50.984;7.022;2023-06-14T06:48:43;2.13;;;1.88;;
12445;SDS011;6287;50.984;7.022;2023-06-14T06:51:09;2.25;;;2.05;;
12445;SDS011;6287;50.984;7.022;2023-06-14T06:53:35;2.63;;;1.85;;
12445;SDS011;6287;50.984;7.022;2023-06-14T06:56:00;3.20;;;1.92;;
12445;SDS011;6287;50.984;7.022;2023-06-14T06:58:28;3.92;;;2.10;;
12445;SDS011;6287;50.984;7.022;2023-06-14T07:00:56;1.90;;;1.73;;
12445;SDS011;6287;50.984;7.022;2023-06-14T07:03:26;1.95;;;1.45;;
12445;SDS011;6287;50.984;7.022;2023-06-14T07:05:57;5.38;;;1.77;;
12445;SDS011;6287;50.984;7.022;2023-06-14T07:08:23;2.28;;;1.90;;
12445;SDS011;6287;50.984;7.022;2023-06-14T07:10:51;1.80;;;1.48;;
12445;SDS011;6287;50.984;7.022;2023-06-14T07:13:17;3.28;;;2.05;;
12445;SDS011;6287;50.984;7.022;2023-06-14T07:15:48;1.30;;;1.27;;
12445;SDS011;6287;50.984;7.022;2023-06-14T07:18:20;1.83;;;1.20;;
12445;SDS011;6287;50.984;7.022;2023-06-14T07:20:47;1.75;;;1.65;;
12445;SDS011;6287;50.984;7.022;2023-06-14T07:23:15;1.85;;;1.70;;
12445;SDS011;6287;50.984;7.022;2023-06-14T07:25:43;1.90;;;1.30;;
12445;SDS011;6287;50.984;7.022;2023-06-14T07:28:09;1.77;;;1.35;;
12445;SDS011;6287;50.984;7.022;2023-06-14T07:30:35;1.40;;;1.30;;
12445;SDS011;6287;50.984;7.022;2023-06-14T07:33:00;2.15;;;1.38;;
12445;SDS011;6287;50.984;7.022;2023-06-14T07:35:28;1.05;;;1.05;;
12445;SDS011;6287;50.984;7.022;2023-06-14T07:37:54;1.30;;;1.20;;
12445;SDS011;6287;50.984;7.022;2023-06-14T07:40:21;1.38;;;1.17;;
12445;SDS011;6287;50.984;7.022;2023-06-14T07:42:50;1.02;;;0.98;;
12445;SDS011;6287;50.984;7.022;2023-06-14T07:45:15;1.10;;;1.00;;
12445;SDS011;6287;50.984;7.022;2023-06-14T07:47:44;1.10;;;1.00;;
12445;SDS011;6287;50.984;7.022;2023-06-14T07:50:14;1.23;;;1.10;;
12445;SDS011;6287;50.984;7.022;2023-06-14T07:52:40;1.00;;;1.00;;
12445;SDS011;6287;50.984;7.022;2023-06-14T07:55:08;1.33;;;1.17;;
12445;SDS011;6287;50.984;7.022;2023-06-14T07:57:38;0.90;;;0.90;;
12445;SDS011;6287;50.984;7.022;2023-06-14T08:00:07;0.80;;;0.80;;
12445;SDS011;6287;50.984;7.022;2023-06-14T08:02:35;0.80;;;0.80;;
12445;SDS011;6287;50.984;7.022;2023-06-14T08:05:03;0.95;;;0.95;;
12445;SDS011;6287;50.984;7.022;2023-06-14T08:07:29;1.08;;;1.00;;
12445;SDS011;6287;50.984;7.022;2023-06-14T08:09:55;1.70;;;1.20;;
12445;SDS011;6287;50.984;7.022;2023-06-14T08:12:20;1.15;;;0.88;;
12445;SDS011;6287;50.984;7.022;2023-06-14T08:14:47;2.47;;;1.08;;
12445;SDS011;6287;50.984;7.022;2023-06-14T08:17:15;0.85;;;0.85;;
12445;SDS011;6287;50.984;7.022;2023-06-14T08:19:40;1.00;;;1.00;;
12445;SDS011;6287;50.984;7.022;2023-06-14T08:22:08;1.05;;;1.05;;
12445;SDS011;6287;50.984;7.022;2023-06-14T08:24:37;1.15;;;0.93;;
12445;SDS011;6287;50.984;7.022;2023-06-14T08:27:05;1.48;;;1.17;;
12445;SDS011;6287;50.984;7.022;2023-06-14T08:29:34;1.10;;;1.10;;
12445;SDS011;6287;50.984;7.022;2023-06-14T08:32:05;1.00;;;0.90;;
12445;SDS011;6287;50.984;7.022;2023-06-14T08:34:33;1.15;;;1.05;;
12445;SDS011;6287;50.984;7.022;2023-06-14T08:37:03;1.13;;;0.80;;
12445;SDS011;6287;50.984;7.022;2023-06-14T08:39:32;1.55;;;1.40;;
12445;SDS011;6287;50.984;7.022;2023-06-14T08:41:58;2.47;;;1.10;;
12445;SDS011;6287;50.984;7.022;2023-06-14T08:44:26;2.22;;;1.10;;
12445;SDS011;6287;50.984;7.022;2023-06-14T08:46:55;1.52;;;1.17;;
12445;SDS011;6287;50.984;7.022;2023-06-14T08:49:22;0.90;;;0.90;;
12445;SDS011;6287;50.984;7.022;2023-06-14T08:51:50;1.25;;;1.15;;
12445;SDS011;6287;50.984;7.022;2023-06-14T08:54:27;1.92;;;1.20;;
12445;SDS011;6287;50.984;7.022;2023-06-14T08:57:01;2.03;;;0.85;;
12445;SDS011;6287;50.984;7.022;2023-06-14T08:59:29;1.23;;;1.05;;
12445;SDS011;6287;50.984;7.022;2023-06-14T09:02:01;1.75;;;1.00;;
12445;SDS011;6287;50.984;7.022;2023-06-14T09:04:28;1.63;;;1.30;;
12445;SDS011;6287;50.984;7.022;2023-06-14T09:06:54;0.90;;;0.85;;
12445;SDS011;6287;50.984;7.022;2023-06-14T09:09:20;1.15;;;1.02;;
12445;SDS011;6287;50.984;7.022;2023-06-14T09:11:48;1.20;;;1.10;;
12445;SDS011;6287;50.984;7.022;2023-06-14T09:14:18;1.13;;;1.10;;
12445;SDS011;6287;50.984;7.022;2023-06-14T09:16:44;1.20;;;1.00;;
12445;SDS011;6287;50.984;7.022;2023-06-14T09:19:21;1.90;;;1.10;;
12445;SDS011;6287;50.984;7.022;2023-06-14T09:21:52;1.60;;;0.93;;
12445;SDS011;6287;50.984;7.022;2023-06-14T09:24:20;1.05;;;1.05;;
12445;SDS011;6287;50.984;7.022;2023-06-14T09:26:52;1.80;;;1.38;;
12445;SDS011;6287;50.984;7.022;2023-06-14T09:29:18;1.10;;;1.02;;
12445;SDS011;6287;50.984;7.022;2023-06-14T09:31:47;1.13;;;1.00;;
12445;SDS011;6287;50.984;7.022;2023-06-14T09:34:13;1.73;;;1.00;;
12445;SDS011;6287;50.984;7.022;2023-06-14T09:36:39;1.30;;;1.20;;
12445;SDS011;6287;50.984;7.022;2023-06-14T09:39:05;1.70;;;1.00;;
12445;SDS011;6287;50.984;7.022;2023-06-14T09:43:58;1.45;;;1.00;;
12445;SDS011;6287;50.984;7.022;2023-06-14T09:46:28;1.15;;;1.00;;
12445;SDS011;6287;50.984;7.022;2023-06-14T09:48:58;1.55;;;1.10;;
12445;SDS011;6287;50.984;7.022;2023-06-14T09:51:27;1.08;;;0.98;;
12445;SDS011;6287;50.984;7.022;2023-06-14T09:53:58;1.42;;;1.30;;
12445;SDS011;6287;50.984;7.022;2023-06-14T09:58:55;1.20;;;1.10;;
12445;SDS011;6287;50.984;7.022;2023-06-14T10:01:27;1.10;;;1.00;;
12445;SDS011;6287;50.984;7.022;2023-06-14T10:04:02;1.73;;;1.10;;
12445;SDS011;6287;50.984;7.022;2023-06-14T10:06:35;0.82;;;0.82;;
12445;SDS011;6287;50.984;7.022;2023-06-14T10:09:08;0.90;;;0.90;;
12445;SDS011;6287;50.984;7.022;2023-06-14T10:11:37;0.93;;;0.93;;
12445;SDS011;6287;50.984;7.022;2023-06-14T10:14:08;1.38;;;1.10;;
12445;SDS011;6287;50.984;7.022;2023-06-14T10:19:27;0.80;;;0.80;;
12445;SDS011;6287;50.984;7.022;2023-06-14T10:22:01;1.15;;;1.02;;
12445;SDS011;6287;50.984;7.022;2023-06-14T10:24:29;1.35;;;0.80;;
12445;SDS011;6287;50.984;7.022;2023-06-14T10:26:58;0.90;;;0.90;;
12445;SDS011;6287;50.984;7.022;2023-06-14T10:29:26;0.90;;;0.90;;
12445;SDS011;6287;50.984;7.022;2023-06-14T10:31:57;1.10;;;1.10;;
12445;SDS011;6287;50.984;7.022;2023-06-14T10:34:27;3.20;;;1.00;;
12445;SDS011;6287;50.984;7.022;2023-06-14T10:37:04;1.67;;;0.90;;
12445;SDS011;6287;50.984;7.022;2023-06-14T10:39:32;1.98;;;1.08;;
12445;SDS011;6287;50.984;7.022;2023-06-14T10:42:01;1.00;;;0.90;;
12445;SDS011;6287;50.984;7.022;2023-06-14T10:47:05;1.50;;;0.80;;
12445;SDS011;6287;50.984;7.022;2023-06-14T10:52:06;2.20;;;1.00;;
12445;SDS011;6287;50.984;7.022;2023-06-14T10:54:55;0.88;;;0.88;;
12445;SDS011;6287;50.984;7.022;2023-06-14T10:57:29;0.90;;;0.90;;
12445;SDS011;6287;50.984;7.022;2023-06-14T10:59:57;0.80;;;0.80;;
12445;SDS011;6287;50.984;7.022;2023-06-14T11:05:25;0.93;;;0.93;;
12445;SDS011;6287;50.984;7.022;2023-06-14T11:08:02;3.75;;;1.30;;
12445;SDS011;6287;50.984;7.022;2023-06-14T11:10:51;1.10;;;0.88;;
12445;SDS011;6287;50.984;7.022;2023-06-14T11:13:17;2.67;;;1.17;;
12445;SDS011;6287;50.984;7.022;2023-06-14T11:15:48;1.05;;;1.05;;
12445;SDS011;6287;50.984;7.022;2023-06-14T11:18:17;1.02;;;1.02;;
12445;SDS011;6287;50.984;7.022;2023-06-14T11:20:45;0.98;;;0.98;;
12445;SDS011;6287;50.984;7.022;2023-06-14T11:23:11;0.90;;;0.90;;
12445;SDS011;6287;50.984;7.022;2023-06-14T11:25:40;1.23;;;1.13;;
12445;SDS011;6287;50.984;7.022;2023-06-14T11:28:08;1.10;;;1.00;;
12445;SDS011;6287;50.984;7.022;2023-06-14T11:30:38;1.20;;;1.10;;
12445;SDS011;6287;50.984;7.022;2023-06-14T11:33:04;1.98;;;1.10;;
12445;SDS011;6287;50.984;7.022;2023-06-14T11:35:36;1.35;;;1.13;;
12445;SDS011;6287;50.984;7.022;2023-06-14T11:38:05;1.15;;;1.00;;
12445;SDS011;6287;50.984;7.022;2023-06-14T11:40:31;1.02;;;0.80;;
12445;SDS011;6287;50.984;7.022;2023-06-14T11:43:00;1.30;;;1.02;;
12445;SDS011;6287;50.984;7.022;2023-06-14T11:45:27;1.17;;;0.90;;
12445;SDS011;6287;50.984;7.022;2023-06-14T11:47:54;1.02;;;1.02;;
12445;SDS011;6287;50.984;7.022;2023-06-14T11:50:24;1.13;;;0.90;;
12445;SDS011;6287;50.984;7.022;2023-06-14T11:52:59;0.90;;;0.90;;
12445;SDS011;6287;50.984;7.022;2023-06-14T11:55:34;1.02;;;0.93;;
12445;SDS011;6287;50.984;7.022;2023-06-14T11:58:10;0.95;;;0.90;;
12445;SDS011;6287;50.984;7.022;2023-06-14T12:00:36;1.98;;;0.63;;
12445;SDS011;6287;50.984;7.022;2023-06-14T12:03:08;0.60;;;0.60;;
12445;SDS011;6287;50.984;7.022;2023-06-14T12:05:36;1.27;;;0.77;;
12445;SDS011;6287;50.984;7.022;2023-06-14T12:08:04;1.25;;;0.80;;
12445;SDS011;6287;50.984;7.022;2023-06-14T12:10:39;0.80;;;0.80;;
12445;SDS011;6287;50.984;7.022;2023-06-14T12:13:06;0.90;;;0.90;;
12445;SDS011;6287;50.984;7.022;2023-06-14T12:15:34;0.90;;;0.80;;
12445;SDS011;6287;50.984;7.022;2023-06-14T12:18:06;0.65;;;0.65;;
12445;SDS011;6287;50.984;7.022;2023-06-14T12:20:33;0.65;;;0.65;;
12445;SDS011;6287;50.984;7.022;2023-06-14T12:23:02;0.70;;;0.70;;
12445;SDS011;6287;50.984;7.022;2023-06-14T12:25:29;0.70;;;0.70;;
12445;SDS011;6287;50.984;7.022;2023-06-14T12:27:57;1.52;;;1.00;;
12445;SDS011;6287;50.984;7.022;2023-06-14T12:30:23;0.77;;;0.70;;
12445;SDS011;6287;50.984;7.022;2023-06-14T12:32:49;1.38;;;0.70;;
12445;SDS011;6287;50.984;7.022;2023-06-14T12:35:16;1.02;;;1.00;;
12445;SDS011;6287;50.984;7.022;2023-06-14T12:37:45;1.30;;;0.88;;
12445;SDS011;6287;50.984;7.022;2023-06-14T12:40:11;0.63;;;0.63;;
12445;SDS011;6287;50.984;7.022;2023-06-14T12:42:42;0.93;;;0.93;;
12445;SDS011;6287;50.984;7.022;2023-06-14T12:45:10;1.75;;;0.90;;
12445;SDS011;6287;50.984;7.022;2023-06-14T12:47:35;0.65;;;0.65;;
12445;SDS011;6287;50.984;7.022;2023-06-14T12:50:03;0.75;;;0.75;;
12445;SDS011;6287;50.984;7.022;2023-06-14T12:52:32;0.80;;;0.75;;
12445;SDS011;6287;50.984;7.022;2023-06-14T12:55:01;0.90;;;0.90;;
12445;SDS011;6287;50.984;7.022;2023-06-14T12:57:31;0.95;;;0.95;;
12445;SDS011;6287;50.984;7.022;2023-06-14T12:59:56;0.70;;;0.70;;
12445;SDS011;6287;50.984;7.022;2023-06-14T13:02:27;0.80;;;0.80;;
12445;SDS011;6287;50.984;7.022;2023-06-14T13:04:53;2.22;;;0.80;;
12445;SDS011;6287;50.984;7.022;2023-06-14T13:07:19;1.67;;;0.80;;
12445;SDS011;6287;50.984;7.022;2023-06-14T13:09:45;0.80;;;0.70;;
12445;SDS011;6287;50.984;7.022;2023-06-14T13:12:13;0.80;;;0.80;;
12445;SDS011;6287;50.984;7.022;2023-06-14T13:14:43;0.75;;;0.75;;
12445;SDS011;6287;50.984;7.022;2023-06-14T13:17:13;0.82;;;0.82;;
12445;SDS011;6287;50.984;7.022;2023-06-14T13:19:39;0.80;;;0.80;;
12445;SDS011;6287;50.984;7.022;2023-06-14T13:22:07;0.80;;;0.80;;
12445;SDS011;6287;50.984;7.022;2023-06-14T13:24:35;1.13;;;1.02;;
12445;SDS011;6287;50.984;7.022;2023-06-14T13:27:01;1.42;;;0.90;;
12445;SDS011;6287;50.984;7.022;2023-06-14T13:29:30;0.80;;;0.80;;
12445;SDS011;6287;50.984;7.022;2023-06-14T13:31:56;0.95;;;0.80;;
12445;SDS011;6287;50.984;7.022;2023-06-14T13:34:24;1.35;;;1.00;;
12445;SDS011;6287;50.984;7.022;2023-06-14T13:36:50;0.95;;;0.95;;
12445;SDS011;6287;50.984;7.022;2023-06-14T13:39:16;1.13;;;1.10;;
12445;SDS011;6287;50.984;7.022;2023-06-14T13:41:44;1.15;;;0.90;;
12445;SDS011;6287;50.984;7.022;2023-06-14T13:44:09;1.10;;;1.10;;
12445;SDS011;6287;50.984;7.022;2023-06-14T13:46:40;1.05;;;1.05;;
12445;SDS011;6287;50.984;7.022;2023-06-14T13:49:07;0.90;;;0.90;;
12445;SDS011;6287;50.984;7.022;2023-06-14T13:51:33;1.63;;;1.10;;
12445;SDS011;6287;50.984;7.022;2023-06-14T13:53:59;1.02;;;1.02;;
12445;SDS011;6287;50.984;7.022;2023-06-14T13:56:26;1.10;;;1.10;;
12445;SDS011;6287;50.984;7.022;2023-06-14T13:58:51;1.40;;;1.00;;
12445;SDS011;6287;50.984;7.022;2023-06-14T14:01:17;0.95;;;0.90;;
12445;SDS011;6287;50.984;7.022;2023-06-14T14:03:46;1.10;;;1.00;;
12445;SDS011;6287;50.984;7.022;2023-06-14T14:06:15;0.80;;;0.80;;
12445;SDS011;6287;50.984;7.022;2023-06-14T14:08:41;1.13;;;1.13;;
12445;SDS011;6287;50.984;7.022;2023-06-14T14:11:09;1.10;;;1.02;;
12445;SDS011;6287;50.984;7.022;2023-06-14T14:13:36;1.65;;;1.13;;
12445;SDS011;6287;50.984;7.022;2023-06-14T14:16:03;1.15;;;1.05;;
12445;SDS011;6287;50.984;7.022;2023-06-14T14:18:32;1.00;;;1.00;;
12445;SDS011;6287;50.984;7.022;2023-06-14T14:21:00;1.27;;;1.17;;
12445;SDS011;6287;50.984;7.022;2023-06-14T14:23:28;1.33;;;1.02;;
12445;SDS011;6287;50.984;7.022;2023-06-14T14:25:55;1.20;;;1.20;;
12445;SDS011;6287;50.984;7.022;2023-06-14T14:28:21;1.00;;;1.00;;
12445;SDS011;6287;50.984;7.022;2023-06-14T14:30:53;1.30;;;1.20;;
12445;SDS011;6287;50.984;7.022;2023-06-14T14:33:21;1.00;;;1.00;;
12445;SDS011;6287;50.984;7.022;2023-06-14T14:35:49;1.35;;;1.00;;
12445;SDS011;6287;50.984;7.022;2023-06-14T14:38:17;2.03;;;1.10;;
12445;SDS011;6287;50.984;7.022;2023-06-14T14:40:43;5.88;;;1.60;;
12445;SDS011;6287;50.984;7.022;2023-06-14T14:43:09;0.90;;;0.90;;
12445;SDS011;6287;50.984;7.022;2023-06-14T14:45:38;1.30;;;1.20;;
12445;SDS011;6287;50.984;7.022;2023-06-14T14:48:05;1.20;;;1.10;;
12445;SDS011;6287;50.984;7.022;2023-06-14T14:50:33;1.00;;;1.00;;
12445;SDS011;6287;50.984;7.022;2023-06-14T14:52:59;1.50;;;1.13;;
12445;SDS011;6287;50.984;7.022;2023-06-14T14:55:27;1.42;;;1.20;;
12445;SDS011;6287;50.984;7.022;2023-06-14T14:57:59;1.50;;;0.98;;
12445;SDS011;6287;50.984;7.022;2023-06-14T15:00:25;0.98;;;0.85;;
12445;SDS011;6287;50.984;7.022;2023-06-14T15:02:51;0.93;;;0.90;;
12445;SDS011;6287;50.984;7.022;2023-06-14T15:05:19;0.80;;;0.80;;
12445;SDS011;6287;50.984;7.022;2023-06-14T15:07:48;0.90;;;0.90;;
12445;SDS011;6287;50.984;7.022;2023-06-14T15:10:18;2.90;;;1.17;;
12445;SDS011;6287;50.984;7.022;2023-06-14T15:12:47;1.25;;;1.20;;
12445;SDS011;6287;50.984;7.022;2023-06-14T15:15:15;1.20;;;1.20;;
12445;SDS011;6287;50.984;7.022;2023-06-14T15:17:42;1.20;;;1.10;;
12445;SDS011;6287;50.984;7.022;2023-06-14T15:20:08;1.05;;;1.05;;
12445;SDS011;6287;50.984;7.022;2023-06-14T15:22:37;1.13;;;1.05;;
12445;SDS011;6287;50.984;7.022;2023-06-14T15:25:08;1.33;;;1.23;;
12445;SDS011;6287;50.984;7.022;2023-06-14T15:27:33;0.90;;;0.90;;